createdAt,value
2022-12-31T00:00:52.431Z,0.90
2022-12-31T00:01:55.511Z,0.50
2022-12-31T00:02:58.737Z,1.10
2022-12-31T00:04:01.832Z,0.93
2022-12-31T00:05:07.914Z,0.50
2022-12-31T00:06:25.546Z,0.77
2022-12-31T00:07:28.497Z,0.82
2022-12-31T00:08:35.132Z,0.70
2022-12-31T00:09:45.679Z,0.80
2022-12-31T00:10:48.778Z,0.80
2022-12-31T00:11:51.591Z,0.63
2022-12-31T00:12:58.161Z,0.70
2022-12-31T00:14:03.758Z,0.55
2022-12-31T00:15:07.370Z,0.60
2022-12-31T00:16:14.544Z,0.60
2022-12-31T00:17:18.360Z,0.93
2022-12-31T00:18:21.210Z,0.50
2022-12-31T00:19:24.156Z,0.73
2022-12-31T00:20:41.876Z,0.88
2022-12-31T00:21:45.254Z,0.52
2022-12-31T00:22:48.154Z,0.60
2022-12-31T00:23:51.172Z,0.52
2022-12-31T00:24:54.057Z,0.57
2022-12-31T00:25:56.879Z,0.57
2022-12-31T00:26:59.741Z,0.63
2022-12-31T00:28:04.058Z,1.00
2022-12-31T00:29:07.286Z,0.90
2022-12-31T00:30:10.798Z,0.47
2022-12-31T00:31:16.647Z,0.75
2022-12-31T00:32:19.683Z,0.52
2022-12-31T00:33:22.498Z,1.08
2022-12-31T00:34:25.444Z,0.60
2022-12-31T00:35:28.465Z,0.88
2022-12-31T00:36:39.651Z,0.65
2022-12-31T00:37:44.122Z,0.50
2022-12-31T00:38:49.685Z,1.27
2022-12-31T00:39:52.490Z,0.75
2022-12-31T00:40:56.195Z,0.70
2022-12-31T00:41:59.026Z,0.88
2022-12-31T00:43:01.983Z,0.65
2022-12-31T00:44:14.924Z,0.95
2022-12-31T00:45:17.754Z,0.63
2022-12-31T00:46:32.012Z,0.63
2022-12-31T00:47:35.012Z,0.60
2022-12-31T00:48:38.213Z,0.80
2022-12-31T00:49:43.530Z,0.50
2022-12-31T00:50:46.545Z,0.52
2022-12-31T00:51:49.584Z,0.57
2022-12-31T00:52:53.131Z,0.75
2022-12-31T00:53:57.558Z,0.63
2022-12-31T00:55:00.447Z,1.02
2022-12-31T00:56:10.381Z,0.43
2022-12-31T00:57:16.535Z,0.75
2022-12-31T00:58:29.578Z,1.02
2022-12-31T00:59:35.961Z,0.98
2022-12-31T01:00:48.938Z,0.88
2022-12-31T01:01:51.936Z,1.20
2022-12-31T01:02:56.301Z,0.82
2022-12-31T01:04:02.195Z,0.73
2022-12-31T01:05:05.927Z,0.68
2022-12-31T01:06:10.028Z,0.70
2022-12-31T01:07:12.957Z,0.82
2022-12-31T01:08:15.805Z,0.60
2022-12-31T01:09:18.797Z,0.40
2022-12-31T01:10:41.540Z,0.57
2022-12-31T01:11:44.805Z,0.88
2022-12-31T01:12:47.653Z,0.65
2022-12-31T01:13:56.320Z,0.50
2022-12-31T01:14:59.692Z,0.70
2022-12-31T01:16:11.099Z,0.63
2022-12-31T01:17:13.988Z,0.80
2022-12-31T01:18:18.319Z,0.65
2022-12-31T01:19:24.334Z,0.60
2022-12-31T01:20:27.322Z,1.30
2022-12-31T01:21:31.103Z,0.50
2022-12-31T01:22:34.005Z,0.60
2022-12-31T01:23:39.958Z,0.95
2022-12-31T01:24:42.825Z,1.20
2022-12-31T01:25:45.641Z,1.02
2022-12-31T01:26:48.542Z,0.73
2022-12-31T01:27:51.352Z,0.60
2022-12-31T01:28:54.633Z,0.50
2022-12-31T01:29:57.433Z,0.60
2022-12-31T01:31:07.820Z,0.52
2022-12-31T01:32:10.701Z,0.57
2022-12-31T01:33:13.576Z,0.60
2022-12-31T01:34:16.380Z,0.75
2022-12-31T01:35:20.622Z,0.60
2022-12-31T01:36:26.595Z,0.30
2022-12-31T01:37:32.778Z,0.77
2022-12-31T01:38:36.610Z,0.60
2022-12-31T01:39:39.529Z,0.60
2022-12-31T01:40:42.576Z,0.43
2022-12-31T01:41:49.024Z,0.40
2022-12-31T01:42:58.681Z,0.70
2022-12-31T01:44:11.640Z,0.70
2022-12-31T01:45:14.831Z,1.05
2022-12-31T01:47:05.056Z,0.50
2022-12-31T01:48:11.657Z,0.70
2022-12-31T01:49:24.172Z,1.05
2022-12-31T01:50:33.323Z,0.40
2022-12-31T01:51:37.663Z,0.57
2022-12-31T01:52:47.748Z,0.52
2022-12-31T01:53:54.939Z,0.52
2022-12-31T01:55:06.233Z,0.57
2022-12-31T01:56:10.580Z,1.13
2022-12-31T01:57:14.957Z,0.50
2022-12-31T01:58:27.898Z,0.75
2022-12-31T01:59:33.552Z,0.55
2022-12-31T02:00:36.907Z,0.55
2022-12-31T02:01:48.462Z,0.95
2022-12-31T02:02:51.945Z,0.55
2022-12-31T02:03:55.990Z,1.02
2022-12-31T02:05:02.925Z,0.70
2022-12-31T02:06:21.280Z,0.93
2022-12-31T02:07:24.503Z,0.60
2022-12-31T02:08:28.912Z,0.68
2022-12-31T02:09:32.828Z,0.77
2022-12-31T02:10:35.932Z,0.85
2022-12-31T02:11:40.321Z,0.50
2022-12-31T02:12:53.559Z,0.55
2022-12-31T02:14:11.021Z,0.70
2022-12-31T02:15:16.015Z,0.40
2022-12-31T02:16:32.522Z,0.35
2022-12-31T02:17:48.075Z,0.63
2022-12-31T02:19:07.732Z,0.47
2022-12-31T02:20:43.556Z,0.60
2022-12-31T02:22:16.415Z,0.73
2022-12-31T02:23:33.739Z,0.95
2022-12-31T02:25:11.591Z,0.30
2022-12-31T02:26:43.997Z,0.32
2022-12-31T02:28:09.359Z,0.73
2022-12-31T02:29:49.982Z,0.45
2022-12-31T02:31:19.114Z,0.93
2022-12-31T02:32:36.909Z,0.82
2022-12-31T02:33:46.894Z,0.57
2022-12-31T02:35:03.559Z,0.40
2022-12-31T02:36:22.902Z,0.68
2022-12-31T02:37:30.483Z,0.85
2022-12-31T02:38:37.496Z,0.70
2022-12-31T02:39:42.453Z,1.13
2022-12-31T02:40:46.016Z,0.47
2022-12-31T02:41:50.623Z,0.43
2022-12-31T02:43:03.867Z,0.60
2022-12-31T02:44:25.603Z,0.50
2022-12-31T02:45:39.091Z,0.57
2022-12-31T02:48:21.935Z,0.82
2022-12-31T02:49:43.180Z,0.85
2022-12-31T02:51:08.277Z,0.57
2022-12-31T02:52:23.153Z,0.40
2022-12-31T02:53:47.996Z,0.70
2022-12-31T02:55:14.756Z,0.65
2022-12-31T02:56:27.514Z,0.57
2022-12-31T02:57:47.808Z,1.02
2022-12-31T02:59:45.176Z,0.85
2022-12-31T03:01:13.846Z,0.57
2022-12-31T03:02:21.951Z,0.40
2022-12-31T03:03:30.044Z,0.65
2022-12-31T03:04:34.502Z,0.88
2022-12-31T03:05:41.894Z,0.63
2022-12-31T03:06:47.549Z,0.88
2022-12-31T03:07:50.561Z,0.70
2022-12-31T03:09:13.394Z,0.60
2022-12-31T03:10:26.411Z,0.88
2022-12-31T03:11:49.176Z,0.82
2022-12-31T03:12:52.340Z,0.82
2022-12-31T03:13:55.184Z,0.63
2022-12-31T03:14:58.805Z,0.70
2022-12-31T03:16:01.703Z,0.75
2022-12-31T03:17:04.680Z,1.00
2022-12-31T03:18:10.426Z,1.02
2022-12-31T03:19:31.873Z,0.50
2022-12-31T03:20:57.742Z,0.50
2022-12-31T03:22:18.811Z,0.75
2022-12-31T03:23:50.368Z,0.50
2022-12-31T03:25:19.811Z,0.77
2022-12-31T03:26:33.281Z,1.30
2022-12-31T03:27:36.186Z,0.50
2022-12-31T03:28:48.134Z,0.80
2022-12-31T03:29:51.048Z,0.70
2022-12-31T03:30:59.732Z,0.70
2022-12-31T03:32:02.698Z,0.52
2022-12-31T03:33:07.320Z,0.68
2022-12-31T03:34:10.143Z,0.77
2022-12-31T03:35:15.044Z,0.50
2022-12-31T03:36:17.953Z,0.65
2022-12-31T03:37:20.778Z,0.55
2022-12-31T03:38:25.216Z,0.63
2022-12-31T03:39:28.438Z,0.80
2022-12-31T03:40:32.840Z,0.63
2022-12-31T03:41:39.324Z,0.50
2022-12-31T03:42:42.823Z,0.50
2022-12-31T03:43:48.381Z,0.93
2022-12-31T03:44:51.294Z,0.85
2022-12-31T03:46:02.018Z,0.63
2022-12-31T03:47:05.231Z,0.77
2022-12-31T03:48:10.961Z,0.95
2022-12-31T03:49:13.812Z,1.02
2022-12-31T03:50:18.275Z,0.73
2022-12-31T03:51:21.189Z,0.73
2022-12-31T03:52:24.100Z,0.63
2022-12-31T03:53:27.642Z,0.60
2022-12-31T03:54:30.485Z,0.80
2022-12-31T03:55:33.352Z,0.70
2022-12-31T03:56:36.194Z,0.60
2022-12-31T03:57:39.534Z,0.55
2022-12-31T03:58:42.327Z,1.27
2022-12-31T03:59:45.223Z,0.60
2022-12-31T04:00:48.259Z,0.50
2022-12-31T04:01:56.160Z,0.50
2022-12-31T04:02:59.469Z,0.50
2022-12-31T04:04:05.664Z,0.75
2022-12-31T04:05:11.015Z,1.00
2022-12-31T04:06:13.859Z,0.70
2022-12-31T04:07:26.854Z,0.80
2022-12-31T04:08:29.717Z,0.70
2022-12-31T04:09:32.570Z,1.27
2022-12-31T04:10:35.614Z,0.75
2022-12-31T04:11:48.576Z,0.43
2022-12-31T04:12:51.482Z,0.57
2022-12-31T04:13:54.395Z,1.08
2022-12-31T04:14:58.199Z,0.98
2022-12-31T04:16:05.283Z,1.05
2022-12-31T04:17:08.555Z,0.75
2022-12-31T04:18:13.966Z,0.82
2022-12-31T04:19:16.932Z,0.47
2022-12-31T04:20:29.970Z,0.73
2022-12-31T04:21:49.283Z,0.90
2022-12-31T04:22:52.336Z,0.77
2022-12-31T04:23:55.650Z,0.63
2022-12-31T04:25:00.411Z,0.80
2022-12-31T04:26:03.686Z,1.00
2022-12-31T04:27:07.999Z,0.63
2022-12-31T04:28:11.146Z,0.80
2022-12-31T04:29:13.935Z,0.80
2022-12-31T04:30:17.118Z,0.70
2022-12-31T04:31:19.986Z,1.10
2022-12-31T04:32:22.933Z,0.77
2022-12-31T04:33:25.810Z,0.98
2022-12-31T04:34:28.696Z,0.95
2022-12-31T04:35:31.517Z,0.70
2022-12-31T04:36:42.224Z,0.95
2022-12-31T04:37:45.020Z,0.98
2022-12-31T04:38:47.842Z,1.05
2022-12-31T04:39:50.917Z,0.70
2022-12-31T04:41:11.952Z,0.80
2022-12-31T04:42:24.860Z,0.93
2022-12-31T04:43:27.909Z,0.82
2022-12-31T04:44:40.936Z,0.70
2022-12-31T04:45:43.829Z,0.88
2022-12-31T04:46:46.828Z,0.82
2022-12-31T04:47:54.528Z,0.85
2022-12-31T04:48:57.966Z,1.27
2022-12-31T04:50:00.809Z,1.30
2022-12-31T04:51:04.285Z,1.20
2022-12-31T04:52:07.313Z,1.70
2022-12-31T04:53:10.064Z,0.93
2022-12-31T04:54:13.067Z,0.55
2022-12-31T04:55:15.910Z,0.80
2022-12-31T04:56:22.019Z,0.93
2022-12-31T04:57:27.329Z,1.15
2022-12-31T04:58:30.222Z,1.08
2022-12-31T04:59:33.042Z,0.82
2022-12-31T05:00:35.865Z,1.45
2022-12-31T05:01:43.087Z,0.85
2022-12-31T05:02:46.188Z,1.30
2022-12-31T05:03:49.315Z,1.08
2022-12-31T05:04:52.181Z,1.00
2022-12-31T05:06:00.272Z,1.02
2022-12-31T05:07:03.400Z,1.20
2022-12-31T05:08:06.262Z,1.30
2022-12-31T05:09:09.132Z,1.20
2022-12-31T05:10:11.932Z,1.08
2022-12-31T05:11:16.947Z,1.17
2022-12-31T05:12:20.130Z,1.52
2022-12-31T05:13:28.004Z,1.42
2022-12-31T05:14:33.988Z,1.58
2022-12-31T05:15:36.997Z,0.82
2022-12-31T05:16:39.937Z,1.27
2022-12-31T05:17:42.900Z,1.42
2022-12-31T05:18:47.533Z,1.27
2022-12-31T05:19:50.387Z,1.30
2022-12-31T05:20:53.303Z,1.05
2022-12-31T05:22:14.595Z,1.60
2022-12-31T05:23:18.329Z,1.08
2022-12-31T05:24:21.164Z,1.52
2022-12-31T05:25:25.658Z,1.25
2022-12-31T05:26:28.508Z,1.73
2022-12-31T05:27:31.521Z,1.55
2022-12-31T05:28:34.492Z,1.65
2022-12-31T05:29:47.415Z,1.45
2022-12-31T05:30:51.573Z,1.85
2022-12-31T05:31:54.469Z,1.45
2022-12-31T05:32:57.281Z,1.27
2022-12-31T05:34:00.252Z,1.70
2022-12-31T05:35:10.620Z,1.30
2022-12-31T05:36:14.842Z,1.42
2022-12-31T05:37:29.913Z,1.63
2022-12-31T05:38:32.867Z,1.42
2022-12-31T05:39:35.893Z,1.52
2022-12-31T05:40:38.879Z,1.92
2022-12-31T05:41:48.242Z,1.55
2022-12-31T05:42:51.218Z,1.70
2022-12-31T05:43:54.417Z,1.67
2022-12-31T05:44:57.323Z,1.27
2022-12-31T05:46:04.791Z,2.28
2022-12-31T05:47:07.864Z,1.67
2022-12-31T05:48:10.754Z,2.00
2022-12-31T05:49:13.556Z,1.95
2022-12-31T05:50:16.820Z,1.83
2022-12-31T05:51:19.676Z,1.80
2022-12-31T05:52:23.022Z,1.80
2022-12-31T05:53:25.992Z,1.88
2022-12-31T05:54:33.251Z,1.92
2022-12-31T05:55:36.117Z,1.88
2022-12-31T05:56:39.321Z,1.92
2022-12-31T05:57:42.246Z,2.53
2022-12-31T05:58:45.205Z,2.60
2022-12-31T05:59:48.112Z,2.42
2022-12-31T06:00:52.631Z,2.58
2022-12-31T06:01:55.580Z,2.15
2022-12-31T06:02:58.658Z,2.13
2022-12-31T06:04:02.874Z,2.10
2022-12-31T06:05:07.108Z,2.92
2022-12-31T06:06:10.059Z,2.28
2022-12-31T06:07:16.870Z,2.17
2022-12-31T06:08:19.826Z,2.13
2022-12-31T06:09:23.125Z,2.20
2022-12-31T06:10:37.952Z,2.22
2022-12-31T06:12:00.187Z,2.22
2022-12-31T06:13:10.216Z,2.95
2022-12-31T06:14:13.770Z,2.55
2022-12-31T06:15:16.832Z,2.40
2022-12-31T06:16:19.927Z,2.50
2022-12-31T06:17:24.599Z,2.33
2022-12-31T06:18:28.475Z,2.83
2022-12-31T06:19:33.066Z,3.63
2022-12-31T06:20:39.848Z,2.40
2022-12-31T06:21:43.433Z,2.50
2022-12-31T06:22:52.033Z,2.85
2022-12-31T06:26:27.372Z,2.60
2022-12-31T06:28:23.497Z,2.65
2022-12-31T06:29:51.389Z,2.45
2022-12-31T06:31:03.428Z,3.10
2022-12-31T06:32:06.626Z,2.60
2022-12-31T06:33:09.519Z,3.20
2022-12-31T06:34:12.923Z,3.58
2022-12-31T06:35:15.982Z,3.50
2022-12-31T06:36:29.036Z,2.85
2022-12-31T06:37:31.982Z,3.40
2022-12-31T06:38:38.609Z,3.50
2022-12-31T06:39:41.485Z,3.63
2022-12-31T06:40:44.310Z,4.25
2022-12-31T06:41:47.123Z,3.40
2022-12-31T06:42:53.390Z,3.45
2022-12-31T06:44:00.777Z,3.53
2022-12-31T06:45:03.775Z,2.97
2022-12-31T06:46:09.179Z,4.13
2022-12-31T06:47:12.107Z,3.22
2022-12-31T06:48:15.208Z,4.43
2022-12-31T06:49:18.377Z,3.67
2022-12-31T06:50:21.258Z,3.65
2022-12-31T06:51:34.413Z,4.55
2022-12-31T06:52:37.513Z,4.03
2022-12-31T06:53:52.106Z,3.58
2022-12-31T06:55:05.991Z,4.38
2022-12-31T06:56:21.021Z,3.88
2022-12-31T06:57:34.384Z,4.00
2022-12-31T06:58:37.520Z,3.67
2022-12-31T06:59:40.757Z,3.92
2022-12-31T07:00:56.748Z,3.85
2022-12-31T07:02:22.104Z,3.67
2022-12-31T07:04:09.468Z,4.05
2022-12-31T07:05:36.264Z,4.45
2022-12-31T07:07:12.785Z,4.13
2022-12-31T07:08:18.800Z,4.63
2022-12-31T07:09:38.374Z,4.70
2022-12-31T07:11:11.146Z,3.80
2022-12-31T07:12:32.042Z,4.15
2022-12-31T07:14:00.363Z,3.95
2022-12-31T07:15:33.955Z,3.88
2022-12-31T07:16:39.878Z,4.20
2022-12-31T07:18:27.389Z,4.50
2022-12-31T07:20:00.600Z,3.90
2022-12-31T07:21:15.017Z,4.38
2022-12-31T07:22:18.130Z,3.85
2022-12-31T07:23:21.295Z,4.55
2022-12-31T07:25:41.445Z,4.10
2022-12-31T07:27:15.866Z,4.60
2022-12-31T07:28:59.162Z,4.45
2022-12-31T07:30:16.212Z,4.22
2022-12-31T07:31:38.328Z,4.40
2022-12-31T07:33:09.105Z,4.72
2022-12-31T07:34:30.044Z,4.63
2022-12-31T07:36:10.185Z,4.65
2022-12-31T07:37:28.885Z,4.35
2022-12-31T07:39:18.065Z,4.47
2022-12-31T07:40:43.212Z,4.63
2022-12-31T07:42:18.748Z,4.25
2022-12-31T07:43:30.430Z,4.13
2022-12-31T07:45:02.665Z,4.22
2022-12-31T07:46:26.622Z,4.13
2022-12-31T07:47:30.479Z,4.43
2022-12-31T07:48:33.557Z,4.13
2022-12-31T07:49:42.528Z,4.57
2022-12-31T07:50:46.415Z,4.50
2022-12-31T07:51:49.761Z,4.10
2022-12-31T07:53:03.083Z,4.93
2022-12-31T07:54:13.428Z,4.35
2022-12-31T07:55:16.976Z,4.43
2022-12-31T07:56:20.804Z,4.32
2022-12-31T07:57:32.209Z,5.13
2022-12-31T07:58:41.156Z,4.45
2022-12-31T07:59:53.183Z,4.22
2022-12-31T08:00:58.324Z,4.32
2022-12-31T08:02:39.667Z,4.53
2022-12-31T08:03:55.289Z,4.55
2022-12-31T08:05:22.717Z,4.78
2022-12-31T08:06:46.366Z,4.15
2022-12-31T08:08:17.394Z,3.95
2022-12-31T08:09:42.079Z,4.07
2022-12-31T08:11:03.180Z,4.28
2022-12-31T08:12:08.181Z,4.10
2022-12-31T08:13:12.655Z,4.13
2022-12-31T08:14:16.119Z,4.43
2022-12-31T08:15:20.583Z,4.50
2022-12-31T08:16:25.413Z,4.13
2022-12-31T08:17:38.715Z,4.32
2022-12-31T08:18:44.650Z,5.22
2022-12-31T08:19:48.051Z,4.93
2022-12-31T08:21:23.033Z,5.22
2022-12-31T08:22:39.571Z,4.63
2022-12-31T08:23:49.724Z,4.63
2022-12-31T08:25:14.251Z,4.97
2022-12-31T08:26:32.353Z,5.00
2022-12-31T08:28:05.960Z,4.88
2022-12-31T08:29:20.955Z,4.22
2022-12-31T08:30:37.175Z,4.40
2022-12-31T08:32:00.714Z,4.75
2022-12-31T08:33:25.079Z,4.72
2022-12-31T08:34:54.706Z,5.30
2022-12-31T08:36:11.221Z,3.92
2022-12-31T08:37:20.343Z,4.50
2022-12-31T08:38:43.376Z,4.53
2022-12-31T08:40:01.143Z,4.45
2022-12-31T08:41:16.289Z,4.32
2022-12-31T08:42:37.166Z,4.63
2022-12-31T08:44:11.089Z,4.55
2022-12-31T08:45:31.974Z,4.03
2022-12-31T08:46:45.182Z,4.90
2022-12-31T08:48:01.950Z,4.82
2022-12-31T08:49:05.153Z,5.25
2022-12-31T08:50:14.813Z,4.47
2022-12-31T08:51:23.735Z,4.50
2022-12-31T08:52:27.711Z,4.43
2022-12-31T08:53:30.811Z,4.25
2022-12-31T08:54:34.052Z,4.85
2022-12-31T08:55:43.868Z,4.93
2022-12-31T08:57:03.597Z,4.55
2022-12-31T08:58:35.149Z,4.47
2022-12-31T09:00:26.563Z,4.75
2022-12-31T09:01:42.246Z,3.83
2022-12-31T09:03:08.324Z,4.25
2022-12-31T09:04:47.239Z,4.45
2022-12-31T09:06:02.658Z,4.43
2022-12-31T09:07:07.232Z,5.20
2022-12-31T09:08:23.018Z,4.22
2022-12-31T09:09:31.762Z,4.82
2022-12-31T09:10:54.339Z,5.00
2022-12-31T09:12:41.084Z,4.50
2022-12-31T09:14:21.800Z,4.53
2022-12-31T09:15:39.062Z,4.90
2022-12-31T09:16:57.638Z,4.88
2022-12-31T09:18:00.919Z,4.88
2022-12-31T09:19:04.626Z,5.25
2022-12-31T09:20:19.801Z,5.05
2022-12-31T09:21:24.146Z,4.75
2022-12-31T09:22:27.468Z,4.63
2022-12-31T09:23:31.903Z,4.10
2022-12-31T09:24:37.741Z,5.53
2022-12-31T09:25:58.419Z,4.38
2022-12-31T09:27:07.891Z,5.35
2022-12-31T09:28:21.869Z,5.20
2022-12-31T09:30:07.019Z,5.55
2022-12-31T09:31:18.220Z,5.53
2022-12-31T09:32:33.128Z,5.45
2022-12-31T09:33:46.821Z,4.82
2022-12-31T09:34:55.722Z,5.20
2022-12-31T09:36:04.271Z,5.00
2022-12-31T09:37:23.599Z,5.75
2022-12-31T09:39:48.016Z,4.55
2022-12-31T09:40:54.325Z,5.28
2022-12-31T09:42:34.296Z,5.75
2022-12-31T09:44:11.498Z,5.15
2022-12-31T09:45:39.671Z,5.05
2022-12-31T09:47:16.074Z,5.30
2022-12-31T09:48:52.839Z,5.15
2022-12-31T09:50:26.369Z,5.15
2022-12-31T09:51:37.343Z,5.38
2022-12-31T09:52:55.063Z,5.40
2022-12-31T09:54:22.000Z,5.75
2022-12-31T09:55:38.203Z,5.55
2022-12-31T09:56:55.503Z,5.57
2022-12-31T09:58:20.304Z,5.47
2022-12-31T10:00:05.551Z,5.18
2022-12-31T10:01:24.362Z,5.13
2022-12-31T10:02:46.344Z,5.00
2022-12-31T10:04:09.290Z,5.50
2022-12-31T10:05:46.322Z,5.47
2022-12-31T10:07:25.489Z,5.25
2022-12-31T10:08:49.524Z,5.30
2022-12-31T10:10:01.182Z,5.78
2022-12-31T10:11:28.981Z,5.43
2022-12-31T10:13:02.050Z,5.40
2022-12-31T10:14:45.297Z,6.22
2022-12-31T10:15:59.705Z,5.43
2022-12-31T10:17:16.018Z,5.63
2022-12-31T10:18:41.539Z,5.65
2022-12-31T10:19:56.961Z,5.68
2022-12-31T10:21:18.227Z,6.05
2022-12-31T10:23:00.846Z,5.70
2022-12-31T10:24:20.228Z,5.60
2022-12-31T10:25:41.936Z,6.15
2022-12-31T10:26:58.717Z,5.50
2022-12-31T10:28:15.698Z,6.32
2022-12-31T10:29:39.870Z,5.45
2022-12-31T10:30:52.794Z,5.88
2022-12-31T10:32:13.944Z,6.43
2022-12-31T10:33:44.757Z,5.72
2022-12-31T10:35:24.978Z,6.22
2022-12-31T10:36:32.389Z,5.85
2022-12-31T10:37:47.085Z,6.05
2022-12-31T10:39:24.480Z,6.63
2022-12-31T10:40:35.961Z,5.60
2022-12-31T10:41:55.981Z,5.93
2022-12-31T10:43:27.694Z,6.43
2022-12-31T10:45:00.514Z,6.60
2022-12-31T10:46:22.489Z,6.82
2022-12-31T10:47:55.953Z,6.43
2022-12-31T10:49:13.947Z,6.00
2022-12-31T10:50:23.214Z,6.15
2022-12-31T10:52:10.774Z,6.40
2022-12-31T10:53:31.604Z,6.68
2022-12-31T10:55:15.870Z,6.10
2022-12-31T10:56:46.441Z,5.88
2022-12-31T10:59:29.667Z,6.40
2022-12-31T11:00:51.849Z,5.95
2022-12-31T11:02:09.759Z,6.35
2022-12-31T11:03:30.714Z,7.03
2022-12-31T11:04:53.426Z,6.53
2022-12-31T11:06:38.209Z,6.40
2022-12-31T11:08:05.970Z,7.15
2022-12-31T11:09:20.699Z,6.32
2022-12-31T11:10:58.957Z,7.13
2022-12-31T11:12:28.816Z,6.50
2022-12-31T11:13:52.629Z,6.65
2022-12-31T11:15:26.881Z,7.25
2022-12-31T11:17:16.988Z,7.10
2022-12-31T11:18:38.944Z,7.20
2022-12-31T11:19:47.916Z,6.53
2022-12-31T11:21:08.505Z,7.13
2022-12-31T11:22:29.568Z,7.10
2022-12-31T11:24:11.732Z,6.50
2022-12-31T11:25:23.879Z,6.72
2022-12-31T11:26:51.848Z,7.03
2022-12-31T11:28:06.968Z,6.75
2022-12-31T11:29:34.966Z,7.30
2022-12-31T11:30:54.840Z,6.88
2022-12-31T11:32:18.746Z,6.72
2022-12-31T11:33:28.556Z,6.75
2022-12-31T11:34:49.163Z,7.22
2022-12-31T11:36:29.662Z,7.43
2022-12-31T11:37:39.273Z,8.20
2022-12-31T11:38:51.874Z,6.72
2022-12-31T11:40:12.951Z,6.57
2022-12-31T11:41:31.614Z,6.47
2022-12-31T11:42:59.997Z,6.72
2022-12-31T11:44:26.863Z,6.13
2022-12-31T11:45:32.945Z,6.40
2022-12-31T11:47:05.959Z,7.72
2022-12-31T11:48:30.675Z,7.88
2022-12-31T11:49:56.247Z,6.80
2022-12-31T11:51:37.193Z,7.32
2022-12-31T11:53:06.404Z,6.75
2022-12-31T11:54:30.850Z,6.60
2022-12-31T11:55:49.943Z,6.63
2022-12-31T11:57:24.220Z,6.80
2022-12-31T11:58:28.884Z,6.53
2022-12-31T11:59:31.862Z,7.55
2022-12-31T12:00:39.362Z,8.02
2022-12-31T12:02:00.077Z,7.15
2022-12-31T12:03:05.881Z,7.43
2022-12-31T12:04:11.510Z,7.13
2022-12-31T12:05:17.197Z,7.68
2022-12-31T12:06:26.291Z,6.65
2022-12-31T12:07:31.841Z,7.18
2022-12-31T12:08:38.902Z,6.78
2022-12-31T12:09:53.566Z,6.85
2022-12-31T12:11:05.717Z,7.45
2022-12-31T12:12:08.647Z,7.82
2022-12-31T12:13:17.317Z,7.32
2022-12-31T12:14:35.496Z,7.22
2022-12-31T12:15:42.635Z,7.20
2022-12-31T12:17:04.090Z,7.65
2022-12-31T12:18:14.762Z,7.03
2022-12-31T12:19:19.018Z,7.70
2022-12-31T12:20:41.990Z,6.90
2022-12-31T12:21:51.923Z,6.90
2022-12-31T12:22:57.029Z,7.38
2022-12-31T12:24:03.332Z,7.50
2022-12-31T12:25:16.111Z,6.75
2022-12-31T12:26:45.703Z,6.95
2022-12-31T12:28:12.374Z,7.57
2022-12-31T12:29:15.606Z,7.22
2022-12-31T12:30:26.252Z,7.57
2022-12-31T12:31:29.284Z,6.90
2022-12-31T12:32:32.292Z,7.57
2022-12-31T12:33:44.212Z,6.78
2022-12-31T12:34:53.458Z,6.95
2022-12-31T12:36:14.181Z,7.50
2022-12-31T12:37:31.462Z,6.97
2022-12-31T12:38:34.834Z,6.35
2022-12-31T12:39:37.748Z,6.97
2022-12-31T12:40:42.303Z,6.85
2022-12-31T12:42:14.015Z,7.45
2022-12-31T12:43:27.371Z,7.13
2022-12-31T12:44:31.425Z,7.15
2022-12-31T12:45:51.465Z,6.88
2022-12-31T12:46:56.493Z,6.85
2022-12-31T12:48:02.748Z,7.38
2022-12-31T12:49:06.303Z,7.20
2022-12-31T12:50:18.519Z,7.55
2022-12-31T12:51:24.477Z,7.32
2022-12-31T12:52:45.767Z,7.78
2022-12-31T12:54:18.227Z,7.07
2022-12-31T12:55:39.955Z,7.13
2022-12-31T12:57:05.030Z,7.60
2022-12-31T12:58:26.610Z,7.43
2022-12-31T13:00:14.712Z,7.07
2022-12-31T13:01:35.195Z,6.63
2022-12-31T13:02:53.308Z,7.35
2022-12-31T13:04:35.203Z,7.65
2022-12-31T13:06:03.634Z,6.88
2022-12-31T13:07:19.090Z,6.97
2022-12-31T13:09:04.629Z,7.13
2022-12-31T13:10:44.289Z,6.88
2022-12-31T13:12:07.723Z,6.80
2022-12-31T13:13:46.803Z,6.68
2022-12-31T13:15:14.524Z,7.25
2022-12-31T13:16:34.906Z,7.10
2022-12-31T13:18:01.936Z,7.00
2022-12-31T13:19:27.954Z,7.25
2022-12-31T13:20:49.928Z,7.68
2022-12-31T13:22:08.033Z,7.35
2022-12-31T13:23:14.188Z,7.65
2022-12-31T13:24:28.987Z,7.10
2022-12-31T13:25:49.268Z,7.65
2022-12-31T13:27:07.213Z,6.88
2022-12-31T13:28:13.421Z,8.00
2022-12-31T13:29:21.101Z,7.57
2022-12-31T13:30:33.041Z,7.85
2022-12-31T13:31:39.467Z,7.22
2022-12-31T13:32:51.926Z,8.07
2022-12-31T13:34:01.390Z,6.90
2022-12-31T13:35:37.654Z,7.85
2022-12-31T13:36:43.388Z,7.20
2022-12-31T13:37:48.286Z,7.60
2022-12-31T13:38:58.226Z,8.00
2022-12-31T13:40:17.697Z,7.78
2022-12-31T13:41:29.730Z,7.30
2022-12-31T13:42:46.122Z,7.28
2022-12-31T13:44:13.992Z,7.13
2022-12-31T13:45:30.170Z,7.75
2022-12-31T13:46:49.035Z,7.70
2022-12-31T13:48:00.959Z,7.88
2022-12-31T13:49:16.763Z,8.00
2022-12-31T13:50:37.806Z,7.75
2022-12-31T13:52:58.911Z,6.75
2022-12-31T13:54:23.107Z,7.95
2022-12-31T13:55:33.888Z,8.20
2022-12-31T13:56:43.096Z,8.60
2022-12-31T13:58:07.992Z,8.50
2022-12-31T13:59:43.628Z,7.85
2022-12-31T14:01:20.237Z,7.30
2022-12-31T14:02:37.972Z,7.38
2022-12-31T14:03:48.165Z,7.95
2022-12-31T14:04:56.683Z,7.20
2022-12-31T14:06:08.613Z,8.10
2022-12-31T14:07:38.980Z,7.97
2022-12-31T14:08:48.009Z,7.30
2022-12-31T14:09:51.047Z,7.65
2022-12-31T14:11:37.291Z,8.40
2022-12-31T14:13:22.409Z,7.70
2022-12-31T14:15:02.562Z,6.97
2022-12-31T14:16:28.190Z,7.53
2022-12-31T14:18:04.729Z,7.75
2022-12-31T14:19:29.164Z,8.18
2022-12-31T14:20:45.023Z,8.07
2022-12-31T14:21:56.892Z,7.60
2022-12-31T14:22:59.917Z,7.05
2022-12-31T14:24:27.616Z,8.45
2022-12-31T14:25:55.246Z,7.65
2022-12-31T14:27:02.739Z,6.95
2022-12-31T14:29:12.419Z,7.78
2022-12-31T14:30:23.627Z,6.68
2022-12-31T14:31:59.418Z,7.43
2022-12-31T14:33:40.064Z,7.18
2022-12-31T14:35:19.685Z,8.05
2022-12-31T14:36:47.112Z,7.60
2022-12-31T14:38:23.587Z,7.38
2022-12-31T14:39:50.344Z,7.43
2022-12-31T14:41:12.376Z,7.90
2022-12-31T14:42:42.028Z,6.75
2022-12-31T14:44:10.420Z,6.90
2022-12-31T14:45:26.611Z,7.78
2022-12-31T14:46:52.658Z,8.88
2022-12-31T14:48:22.296Z,8.10
2022-12-31T14:49:55.924Z,7.60
2022-12-31T14:51:09.425Z,8.00
2022-12-31T14:52:42.412Z,7.70
2022-12-31T14:54:02.740Z,7.35
2022-12-31T14:55:21.476Z,9.10
2022-12-31T14:56:47.467Z,7.68
2022-12-31T14:58:26.938Z,7.78
2022-12-31T14:59:40.494Z,7.95
2022-12-31T15:00:55.549Z,7.47
2022-12-31T15:02:33.725Z,8.15
2022-12-31T15:03:45.723Z,7.60
2022-12-31T15:05:25.475Z,8.32
2022-12-31T15:07:13.238Z,8.27
2022-12-31T15:08:47.516Z,7.80
2022-12-31T15:10:23.802Z,8.23
2022-12-31T15:11:27.620Z,8.13
2022-12-31T15:12:47.135Z,8.38
2022-12-31T15:14:04.949Z,7.88
2022-12-31T15:15:33.346Z,8.15
2022-12-31T15:16:57.493Z,7.28
2022-12-31T15:18:16.618Z,8.98
2022-12-31T15:19:19.633Z,8.15
2022-12-31T15:20:41.226Z,8.82
2022-12-31T15:21:44.093Z,8.65
2022-12-31T15:22:51.423Z,8.38
2022-12-31T15:25:01.991Z,8.20
2022-12-31T15:26:31.771Z,8.82
2022-12-31T15:27:42.488Z,8.25
2022-12-31T15:28:45.903Z,8.75
2022-12-31T15:29:51.268Z,9.25
2022-12-31T15:30:56.860Z,9.10
2022-12-31T15:32:04.215Z,9.40
2022-12-31T15:33:19.110Z,9.75
2022-12-31T15:34:37.214Z,8.90
2022-12-31T15:35:52.539Z,9.40
2022-12-31T15:36:59.399Z,8.63
2022-12-31T15:38:29.669Z,8.48
2022-12-31T15:39:32.457Z,8.52
2022-12-31T15:40:46.382Z,9.18
2022-12-31T15:42:36.312Z,8.75
2022-12-31T15:43:25.616Z,9.50
2022-12-31T15:44:52.283Z,9.50
2022-12-31T15:45:59.009Z,9.95
2022-12-31T15:47:27.838Z,10.27
2022-12-31T15:48:47.825Z,9.00
2022-12-31T15:49:55.033Z,9.07
2022-12-31T15:51:01.116Z,9.20
2022-12-31T15:52:13.445Z,9.40
2022-12-31T15:53:34.686Z,9.48
2022-12-31T15:54:44.628Z,9.75
2022-12-31T15:55:52.496Z,9.38
2022-12-31T15:56:55.479Z,9.55
2022-12-31T15:58:06.620Z,9.27
2022-12-31T15:59:14.860Z,10.00
2022-12-31T16:00:23.932Z,10.27
2022-12-31T16:01:36.269Z,9.75
2022-12-31T16:03:54.896Z,9.48
2022-12-31T16:04:57.919Z,9.80
2022-12-31T16:06:08.279Z,9.93
2022-12-31T16:07:24.248Z,10.13
2022-12-31T16:08:31.325Z,10.25
2022-12-31T16:09:36.883Z,10.50
2022-12-31T16:10:43.713Z,10.02
2022-12-31T16:11:46.952Z,10.20
2022-12-31T16:12:50.337Z,10.50
2022-12-31T16:13:55.680Z,10.35
2022-12-31T16:14:59.872Z,10.07
2022-12-31T16:16:07.085Z,11.15
2022-12-31T16:17:39.984Z,10.40
2022-12-31T16:18:44.606Z,9.25
2022-12-31T16:19:48.117Z,9.95
2022-12-31T16:20:53.671Z,10.23
2022-12-31T16:21:58.236Z,10.25
2022-12-31T16:23:03.658Z,10.35
2022-12-31T16:24:29.449Z,9.75
2022-12-31T16:25:33.972Z,11.02
2022-12-31T16:26:50.019Z,10.52
2022-12-31T16:27:54.464Z,10.88
2022-12-31T16:29:04.607Z,10.60
2022-12-31T16:30:23.184Z,10.57
2022-12-31T16:31:29.978Z,10.00